sensor_id;sensor_type;location;lat;lon;timestamp;P1;durP1;ratioP1;P2;durP2;ratioP2
50821;SDS011;36794;51.212;6.980;2023-06-26T00:01:23;7.88;;;4.72;;
50821;SDS011;36794;51.212;6.980;2023-06-26T00:03:49;9.75;;;4.35;;
50821;SDS011;36794;51.212;6.980;2023-06-26T00:06:15;7.18;;;4.53;;
50821;SDS011;36794;51.212;6.980;2023-06-26T00:08:41;6.50;;;4.65;;
50821;SDS011;36794;51.212;6.980;2023-06-26T00:11:08;7.30;;;4.30;;
50821;SDS011;36794;51.212;6.980;2023-06-26T00:13:34;5.85;;;4.32;;
50821;SDS011;36794;51.212;6.980;2023-06-26T00:16:00;6.82;;;4.40;;
50821;SDS011;36794;51.212;6.980;2023-06-26T00:18:28;5.07;;;4.40;;
50821;SDS011;36794;51.212;6.980;2023-06-26T00:20:54;6.38;;;4.70;;
50821;SDS011;36794;51.212;6.980;2023-06-26T00:23:20;7.45;;;4.15;;
50821;SDS011;36794;51.212;6.980;2023-06-26T00:25:46;5.15;;;4.10;;
50821;SDS011;36794;51.212;6.980;2023-06-26T00:28:12;6.93;;;4.53;;
50821;SDS011;36794;51.212;6.980;2023-06-26T00:30:38;7.38;;;4.50;;
50821;SDS011;36794;51.212;6.980;2023-06-26T00:33:04;4.60;;;4.13;;
50821;SDS011;36794;51.212;6.980;2023-06-26T00:35:30;5.55;;;4.22;;
50821;SDS011;36794;51.212;6.980;2023-06-26T00:37:56;4.97;;;4.47;;
50821;SDS011;36794;51.212;6.980;2023-06-26T00:40:22;7.25;;;4.25;;
50821;SDS011;36794;51.212;6.980;2023-06-26T00:42:48;5.70;;;4.47;;
50821;SDS011;36794;51.212;6.980;2023-06-26T00:45:14;6.95;;;4.70;;
50821;SDS011;36794;51.212;6.980;2023-06-26T00:47:40;8.38;;;4.55;;
50821;SDS011;36794;51.212;6.980;2023-06-26T00:50:06;6.03;;;4.50;;
50821;SDS011;36794;51.212;6.980;2023-06-26T00:52:32;7.25;;;4.25;;
50821;SDS011;36794;51.212;6.980;2023-06-26T00:54:58;6.13;;;4.15;;
50821;SDS011;36794;51.212;6.980;2023-06-26T00:57:24;7.82;;;4.57;;
50821;SDS011;36794;51.212;6.980;2023-06-26T00:59:50;7.88;;;4.63;;
50821;SDS011;36794;51.212;6.980;2023-06-26T01:02:16;4.95;;;4.38;;
50821;SDS011;36794;51.212;6.980;2023-06-26T01:04:48;5.50;;;4.57;;
50821;SDS011;36794;51.212;6.980;2023-06-26T01:07:15;5.13;;;4.63;;
50821;SDS011;36794;51.212;6.980;2023-06-26T01:09:43;5.80;;;4.50;;
50821;SDS011;36794;51.212;6.980;2023-06-26T01:12:10;5.80;;;4.50;;
50821;SDS011;36794;51.212;6.980;2023-06-26T01:14:36;6.72;;;4.28;;
50821;SDS011;36794;51.212;6.980;2023-06-26T01:17:02;6.68;;;4.65;;
50821;SDS011;36794;51.212;6.980;2023-06-26T01:19:29;5.63;;;4.30;;
50821;SDS011;36794;51.212;6.980;2023-06-26T01:22:03;5.72;;;4.75;;
50821;SDS011;36794;51.212;6.980;2023-06-26T01:24:39;6.65;;;4.47;;
50821;SDS011;36794;51.212;6.980;2023-06-26T01:27:08;7.68;;;4.32;;
50821;SDS011;36794;51.212;6.980;2023-06-26T01:29:34;6.32;;;4.57;;
50821;SDS011;36794;51.212;6.980;2023-06-26T01:32:00;5.50;;;4.07;;
50821;SDS011;36794;51.212;6.980;2023-06-26T01:34:26;6.88;;;4.70;;
50821;SDS011;36794;51.212;6.980;2023-06-26T01:36:52;5.85;;;4.75;;
50821;SDS011;36794;51.212;6.980;2023-06-26T01:39:19;8.85;;;4.63;;
50821;SDS011;36794;51.212;6.980;2023-06-26T01:41:45;5.68;;;4.28;;
50821;SDS011;36794;51.212;6.980;2023-06-26T01:46:43;5.13;;;4.32;;
50821;SDS011;36794;51.212;6.980;2023-06-26T01:49:15;8.18;;;4.50;;
50821;SDS011;36794;51.212;6.980;2023-06-26T01:51:52;5.85;;;4.60;;
50821;SDS011;36794;51.212;6.980;2023-06-26T01:54:20;6.43;;;4.40;;
50821;SDS011;36794;51.212;6.980;2023-06-26T01:56:49;6.50;;;4.55;;
50821;SDS011;36794;51.212;6.980;2023-06-26T01:59:15;5.07;;;4.57;;
50821;SDS011;36794;51.212;6.980;2023-06-26T02:01:43;6.25;;;4.78;;
50821;SDS011;36794;51.212;6.980;2023-06-26T02:04:09;5.18;;;4.38;;
50821;SDS011;36794;51.212;6.980;2023-06-26T02:06:35;7.75;;;4.07;;
50821;SDS011;36794;51.212;6.980;2023-06-26T02:09:01;5.43;;;4.40;;
50821;SDS011;36794;51.212;6.980;2023-06-26T02:11:28;6.15;;;5.03;;
50821;SDS011;36794;51.212;6.980;2023-06-26T02:13:54;5.43;;;4.68;;
50821;SDS011;36794;51.212;6.980;2023-06-26T02:16:20;6.03;;;4.57;;
50821;SDS011;36794;51.212;6.980;2023-06-26T02:18:46;5.97;;;4.80;;
50821;SDS011;36794;51.212;6.980;2023-06-26T02:21:12;6.25;;;4.32;;
50821;SDS011;36794;51.212;6.980;2023-06-26T02:23:38;8.32;;;5.10;;
50821;SDS011;36794;51.212;6.980;2023-06-26T02:26:04;5.80;;;4.40;;
50821;SDS011;36794;51.212;6.980;2023-06-26T02:28:30;6.60;;;4.72;;
50821;SDS011;36794;51.212;6.980;2023-06-26T02:30:58;8.88;;;4.78;;
50821;SDS011;36794;51.212;6.980;2023-06-26T02:33:24;5.20;;;4.43;;
50821;SDS011;36794;51.212;6.980;2023-06-26T02:35:50;5.97;;;4.63;;
50821;SDS011;36794;51.212;6.980;2023-06-26T02:38:16;6.40;;;4.90;;
50821;SDS011;36794;51.212;6.980;2023-06-26T02:40:42;7.40;;;4.85;;
50821;SDS011;36794;51.212;6.980;2023-06-26T02:43:08;5.88;;;4.50;;
50821;SDS011;36794;51.212;6.980;2023-06-26T02:45:34;6.32;;;4.93;;
50821;SDS011;36794;51.212;6.980;2023-06-26T02:48:00;6.63;;;5.07;;
50821;SDS011;36794;51.212;6.980;2023-06-26T02:50:26;8.75;;;5.00;;
50821;SDS011;36794;51.212;6.980;2023-06-26T02:52:52;5.78;;;5.13;;
50821;SDS011;36794;51.212;6.980;2023-06-26T02:55:21;11.15;;;4.80;;
50821;SDS011;36794;51.212;6.980;2023-06-26T02:57:47;5.78;;;4.68;;
50821;SDS011;36794;51.212;6.980;2023-06-26T03:00:13;7.63;;;5.00;;
50821;SDS011;36794;51.212;6.980;2023-06-26T03:02:39;8.57;;;5.22;;
50821;SDS011;36794;51.212;6.980;2023-06-26T03:05:05;7.13;;;5.35;;
50821;SDS011;36794;51.212;6.980;2023-06-26T03:07:31;10.45;;;5.63;;
50821;SDS011;36794;51.212;6.980;2023-06-26T03:09:57;6.20;;;5.07;;
50821;SDS011;36794;51.212;6.980;2023-06-26T03:12:23;5.82;;;4.53;;
50821;SDS011;36794;51.212;6.980;2023-06-26T03:14:49;7.60;;;4.80;;
50821;SDS011;36794;51.212;6.980;2023-06-26T03:17:15;6.60;;;4.57;;
50821;SDS011;36794;51.212;6.980;2023-06-26T03:19:41;7.10;;;4.97;;
50821;SDS011;36794;51.212;6.980;2023-06-26T03:22:07;6.75;;;4.90;;
50821;SDS011;36794;51.212;6.980;2023-06-26T03:24:33;10.32;;;4.88;;
50821;SDS011;36794;51.212;6.980;2023-06-26T03:26:59;7.18;;;5.20;;
50821;SDS011;36794;51.212;6.980;2023-06-26T03:29:25;7.25;;;5.40;;
50821;SDS011;36794;51.212;6.980;2023-06-26T03:31:51;7.55;;;5.38;;
50821;SDS011;36794;51.212;6.980;2023-06-26T03:34:17;6.25;;;5.35;;
50821;SDS011;36794;51.212;6.980;2023-06-26T03:36:43;10.70;;;5.15;;
50821;SDS011;36794;51.212;6.980;2023-06-26T03:39:09;5.70;;;5.00;;
50821;SDS011;36794;51.212;6.980;2023-06-26T03:41:35;8.20;;;5.05;;
50821;SDS011;36794;51.212;6.980;2023-06-26T03:44:01;6.38;;;5.20;;
50821;SDS011;36794;51.212;6.980;2023-06-26T03:46:28;5.88;;;5.05;;
50821;SDS011;36794;51.212;6.980;2023-06-26T03:48:54;7.38;;;5.53;;
50821;SDS011;36794;51.212;6.980;2023-06-26T03:51:20;6.97;;;5.43;;
50821;SDS011;36794;51.212;6.980;2023-06-26T03:53:46;9.35;;;5.72;;
50821;SDS011;36794;51.212;6.980;2023-06-26T03:56:12;11.43;;;5.75;;
50821;SDS011;36794;51.212;6.980;2023-06-26T03:58:39;8.90;;;5.40;;
50821;SDS011;36794;51.212;6.980;2023-06-26T04:01:05;8.73;;;5.35;;
50821;SDS011;36794;51.212;6.980;2023-06-26T04:03:31;7.07;;;5.60;;
50821;SDS011;36794;51.212;6.980;2023-06-26T04:05:56;7.07;;;6.05;;
50821;SDS011;36794;51.212;6.980;2023-06-26T04:08:23;7.63;;;5.70;;
50821;SDS011;36794;51.212;6.980;2023-06-26T04:10:51;9.63;;;5.90;;
50821;SDS011;36794;51.212;6.980;2023-06-26T04:13:17;7.32;;;5.53;;
50821;SDS011;36794;51.212;6.980;2023-06-26T04:15:43;7.55;;;5.78;;
50821;SDS011;36794;51.212;6.980;2023-06-26T04:18:09;8.13;;;5.55;;
50821;SDS011;36794;51.212;6.980;2023-06-26T04:20:38;7.65;;;5.70;;
50821;SDS011;36794;51.212;6.980;2023-06-26T04:23:05;8.18;;;5.57;;
50821;SDS011;36794;51.212;6.980;2023-06-26T04:25:30;9.38;;;5.13;;
50821;SDS011;36794;51.212;6.980;2023-06-26T04:27:56;8.27;;;5.20;;
50821;SDS011;36794;51.212;6.980;2023-06-26T04:30:22;9.68;;;5.88;;
50821;SDS011;36794;51.212;6.980;2023-06-26T04:32:48;10.38;;;5.68;;
50821;SDS011;36794;51.212;6.980;2023-06-26T04:35:14;10.55;;;5.15;;
50821;SDS011;36794;51.212;6.980;2023-06-26T04:37:40;11.35;;;4.88;;
50821;SDS011;36794;51.212;6.980;2023-06-26T04:40:06;7.22;;;5.00;;
50821;SDS011;36794;51.212;6.980;2023-06-26T04:42:34;9.23;;;5.35;;
50821;SDS011;36794;51.212;6.980;2023-06-26T04:45:00;6.75;;;4.50;;
50821;SDS011;36794;51.212;6.980;2023-06-26T04:47:27;7.78;;;5.28;;
50821;SDS011;36794;51.212;6.980;2023-06-26T04:49:53;8.32;;;5.20;;
50821;SDS011;36794;51.212;6.980;2023-06-26T04:52:20;6.45;;;5.20;;
50821;SDS011;36794;51.212;6.980;2023-06-26T04:54:46;8.48;;;5.32;;
50821;SDS011;36794;51.212;6.980;2023-06-26T04:57:12;6.90;;;4.97;;
50821;SDS011;36794;51.212;6.980;2023-06-26T04:59:39;8.00;;;4.82;;
50821;SDS011;36794;51.212;6.980;2023-06-26T05:02:05;9.27;;;5.10;;
50821;SDS011;36794;51.212;6.980;2023-06-26T05:04:31;32.83;;;5.97;;
50821;SDS011;36794;51.212;6.980;2023-06-26T05:06:57;8.52;;;4.90;;
50821;SDS011;36794;51.212;6.980;2023-06-26T05:09:23;8.23;;;4.82;;
50821;SDS011;36794;51.212;6.980;2023-06-26T05:11:49;9.25;;;4.95;;
50821;SDS011;36794;51.212;6.980;2023-06-26T05:14:15;5.72;;;4.20;;
50821;SDS011;36794;51.212;6.980;2023-06-26T05:16:41;8.15;;;4.32;;
50821;SDS011;36794;51.212;6.980;2023-06-26T05:19:07;6.90;;;4.22;;
50821;SDS011;36794;51.212;6.980;2023-06-26T05:21:33;10.88;;;4.25;;
50821;SDS011;36794;51.212;6.980;2023-06-26T05:24:00;9.77;;;4.20;;
50821;SDS011;36794;51.212;6.980;2023-06-26T05:26:28;8.82;;;4.50;;
50821;SDS011;36794;51.212;6.980;2023-06-26T05:28:55;7.95;;;3.80;;
50821;SDS011;36794;51.212;6.980;2023-06-26T05:31:21;7.88;;;3.88;;
50821;SDS011;36794;51.212;6.980;2023-06-26T05:33:47;6.43;;;3.70;;
50821;SDS011;36794;51.212;6.980;2023-06-26T05:36:14;8.48;;;4.43;;
50821;SDS011;36794;51.212;6.980;2023-06-26T05:38:42;8.90;;;4.00;;
50821;SDS011;36794;51.212;6.980;2023-06-26T05:41:08;7.68;;;4.32;;
50821;SDS011;36794;51.212;6.980;2023-06-26T05:43:34;8.90;;;3.85;;
50821;SDS011;36794;51.212;6.980;2023-06-26T05:46:00;10.13;;;4.60;;
50821;SDS011;36794;51.212;6.980;2023-06-26T05:48:26;7.90;;;4.50;;
50821;SDS011;36794;51.212;6.980;2023-06-26T05:50:52;8.25;;;4.13;;
50821;SDS011;36794;51.212;6.980;2023-06-26T05:53:18;7.88;;;4.50;;
50821;SDS011;36794;51.212;6.980;2023-06-26T05:55:45;8.02;;;4.55;;
50821;SDS011;36794;51.212;6.980;2023-06-26T05:58:11;8.93;;;4.38;;
50821;SDS011;36794;51.212;6.980;2023-06-26T06:00:38;6.88;;;4.45;;
50821;SDS011;36794;51.212;6.980;2023-06-26T06:03:04;8.10;;;4.10;;
50821;SDS011;36794;51.212;6.980;2023-06-26T06:05:30;7.88;;;4.35;;
50821;SDS011;36794;51.212;6.980;2023-06-26T06:07:56;9.35;;;4.65;;
50821;SDS011;36794;51.212;6.980;2023-06-26T06:10:22;8.68;;;4.85;;
50821;SDS011;36794;51.212;6.980;2023-06-26T06:12:48;10.07;;;4.82;;
50821;SDS011;36794;51.212;6.980;2023-06-26T06:15:14;12.55;;;4.28;;
50821;SDS011;36794;51.212;6.980;2023-06-26T06:17:40;8.32;;;4.18;;
50821;SDS011;36794;51.212;6.980;2023-06-26T06:20:06;7.18;;;4.50;;
50821;SDS011;36794;51.212;6.980;2023-06-26T06:22:32;7.63;;;4.47;;
50821;SDS011;36794;51.212;6.980;2023-06-26T06:24:58;11.40;;;4.40;;
50821;SDS011;36794;51.212;6.980;2023-06-26T06:27:24;13.48;;;4.70;;
50821;SDS011;36794;51.212;6.980;2023-06-26T06:29:50;6.68;;;4.00;;
50821;SDS011;36794;51.212;6.980;2023-06-26T06:32:16;8.23;;;4.50;;
50821;SDS011;36794;51.212;6.980;2023-06-26T06:34:42;10.02;;;4.45;;
50821;SDS011;36794;51.212;6.980;2023-06-26T06:37:08;8.32;;;4.13;;
50821;SDS011;36794;51.212;6.980;2023-06-26T06:39:34;7.53;;;4.30;;
50821;SDS011;36794;51.212;6.980;2023-06-26T06:42:00;9.00;;;4.25;;
50821;SDS011;36794;51.212;6.980;2023-06-26T06:44:26;9.75;;;4.45;;
50821;SDS011;36794;51.212;6.980;2023-06-26T06:46:51;6.28;;;4.25;;
50821;SDS011;36794;51.212;6.980;2023-06-26T06:49:18;19.15;;;4.50;;
50821;SDS011;36794;51.212;6.980;2023-06-26T06:51:44;8.35;;;4.05;;
50821;SDS011;36794;51.212;6.980;2023-06-26T06:54:10;6.18;;;4.20;;
50821;SDS011;36794;51.212;6.980;2023-06-26T06:56:36;10.93;;;4.07;;
50821;SDS011;36794;51.212;6.980;2023-06-26T06:59:02;11.40;;;4.25;;
50821;SDS011;36794;51.212;6.980;2023-06-26T07:01:28;8.10;;;4.28;;
50821;SDS011;36794;51.212;6.980;2023-06-26T07:03:54;10.27;;;4.20;;
50821;SDS011;36794;51.212;6.980;2023-06-26T07:06:20;9.07;;;4.22;;
50821;SDS011;36794;51.212;6.980;2023-06-26T07:08:46;8.30;;;4.57;;
50821;SDS011;36794;51.212;6.980;2023-06-26T07:11:12;11.15;;;4.32;;
50821;SDS011;36794;51.212;6.980;2023-06-26T07:13:38;11.77;;;4.60;;
50821;SDS011;36794;51.212;6.980;2023-06-26T07:16:04;9.77;;;4.72;;
50821;SDS011;36794;51.212;6.980;2023-06-26T07:18:30;11.00;;;4.03;;
50821;SDS011;36794;51.212;6.980;2023-06-26T07:20:56;12.48;;;4.05;;
50821;SDS011;36794;51.212;6.980;2023-06-26T07:23:22;11.23;;;4.45;;
50821;SDS011;36794;51.212;6.980;2023-06-26T07:25:48;12.02;;;4.60;;
50821;SDS011;36794;51.212;6.980;2023-06-26T07:28:14;12.73;;;4.50;;
50821;SDS011;36794;51.212;6.980;2023-06-26T07:30:41;16.70;;;4.95;;
50821;SDS011;36794;51.212;6.980;2023-06-26T07:33:07;13.00;;;4.15;;
50821;SDS011;36794;51.212;6.980;2023-06-26T07:35:33;14.88;;;4.25;;
50821;SDS011;36794;51.212;6.980;2023-06-26T07:37:59;7.57;;;4.05;;
50821;SDS011;36794;51.212;6.980;2023-06-26T07:40:25;12.35;;;4.30;;
50821;SDS011;36794;51.212;6.980;2023-06-26T07:42:52;10.00;;;3.95;;
50821;SDS011;36794;51.212;6.980;2023-06-26T07:45:19;10.80;;;4.00;;
50821;SDS011;36794;51.212;6.980;2023-06-26T07:47:45;11.70;;;4.53;;
50821;SDS011;36794;51.212;6.980;2023-06-26T07:50:11;9.43;;;4.30;;
50821;SDS011;36794;51.212;6.980;2023-06-26T07:52:37;14.98;;;4.40;;
50821;SDS011;36794;51.212;6.980;2023-06-26T07:55:03;11.88;;;3.90;;
50821;SDS011;36794;51.212;6.980;2023-06-26T07:57:29;11.85;;;4.07;;
50821;SDS011;36794;51.212;6.980;2023-06-26T07:59:57;11.75;;;3.78;;
50821;SDS011;36794;51.212;6.980;2023-06-26T08:02:23;10.52;;;3.50;;
50821;SDS011;36794;51.212;6.980;2023-06-26T08:04:49;13.30;;;4.07;;
50821;SDS011;36794;51.212;6.980;2023-06-26T08:07:15;11.82;;;4.30;;
50821;SDS011;36794;51.212;6.980;2023-06-26T08:09:40;9.52;;;4.13;;
50821;SDS011;36794;51.212;6.980;2023-06-26T08:12:07;10.55;;;4.03;;
50821;SDS011;36794;51.212;6.980;2023-06-26T08:14:33;12.82;;;4.35;;
50821;SDS011;36794;51.212;6.980;2023-06-26T08:16:58;12.27;;;4.32;;
50821;SDS011;36794;51.212;6.980;2023-06-26T08:19:24;10.43;;;3.83;;
50821;SDS011;36794;51.212;6.980;2023-06-26T08:21:50;10.45;;;4.47;;
50821;SDS011;36794;51.212;6.980;2023-06-26T08:24:16;11.45;;;4.63;;
50821;SDS011;36794;51.212;6.980;2023-06-26T08:26:44;10.65;;;4.43;;
50821;SDS011;36794;51.212;6.980;2023-06-26T08:29:11;13.88;;;4.75;;
50821;SDS011;36794;51.212;6.980;2023-06-26T08:31:37;15.15;;;4.43;;
50821;SDS011;36794;51.212;6.980;2023-06-26T08:34:04;7.50;;;4.10;;
50821;SDS011;36794;51.212;6.980;2023-06-26T08:36:30;9.10;;;4.03;;
50821;SDS011;36794;51.212;6.980;2023-06-26T08:38:56;9.90;;;3.83;;
50821;SDS011;36794;51.212;6.980;2023-06-26T08:41:22;9.95;;;4.50;;
50821;SDS011;36794;51.212;6.980;2023-06-26T08:43:48;16.20;;;4.88;;
50821;SDS011;36794;51.212;6.980;2023-06-26T08:46:16;8.55;;;4.15;;
50821;SDS011;36794;51.212;6.980;2023-06-26T08:48:43;14.15;;;4.88;;
50821;SDS011;36794;51.212;6.980;2023-06-26T08:51:11;12.10;;;4.32;;
50821;SDS011;36794;51.212;6.980;2023-06-26T08:53:52;12.23;;;4.40;;
50821;SDS011;36794;51.212;6.980;2023-06-26T08:56:22;16.52;;;5.00;;
50821;SDS011;36794;51.212;6.980;2023-06-26T08:58:48;8.40;;;4.03;;
50821;SDS011;36794;51.212;6.980;2023-06-26T09:01:14;11.98;;;4.63;;
50821;SDS011;36794;51.212;6.980;2023-06-26T09:03:41;11.20;;;4.10;;
50821;SDS011;36794;51.212;6.980;2023-06-26T09:06:07;10.95;;;4.70;;
50821;SDS011;36794;51.212;6.980;2023-06-26T09:08:34;14.10;;;4.50;;
50821;SDS011;36794;51.212;6.980;2023-06-26T09:10:59;11.77;;;4.13;;
50821;SDS011;36794;51.212;6.980;2023-06-26T09:13:27;10.93;;;4.43;;
50821;SDS011;36794;51.212;6.980;2023-06-26T09:15:54;11.15;;;3.92;;
50821;SDS011;36794;51.212;6.980;2023-06-26T09:18:20;15.48;;;4.30;;
50821;SDS011;36794;51.212;6.980;2023-06-26T09:20:47;13.13;;;4.25;;
50821;SDS011;36794;51.212;6.980;2023-06-26T09:23:13;13.80;;;3.80;;
50821;SDS011;36794;51.212;6.980;2023-06-26T09:25:39;10.82;;;3.30;;
50821;SDS011;36794;51.212;6.980;2023-06-26T09:28:06;7.68;;;2.97;;
50821;SDS011;36794;51.212;6.980;2023-06-26T09:30:32;11.68;;;3.63;;
50821;SDS011;36794;51.212;6.980;2023-06-26T09:33:12;7.15;;;3.25;;
50821;SDS011;36794;51.212;6.980;2023-06-26T09:35:38;11.57;;;3.47;;
50821;SDS011;36794;51.212;6.980;2023-06-26T09:38:04;11.23;;;3.90;;
50821;SDS011;36794;51.212;6.980;2023-06-26T09:40:30;11.20;;;3.33;;
50821;SDS011;36794;51.212;6.980;2023-06-26T09:43:05;12.50;;;3.50;;
50821;SDS011;36794;51.212;6.980;2023-06-26T09:45:34;9.45;;;3.13;;
50821;SDS011;36794;51.212;6.980;2023-06-26T09:48:04;10.90;;;2.92;;
50821;SDS011;36794;51.212;6.980;2023-06-26T09:50:30;10.68;;;3.47;;
50821;SDS011;36794;51.212;6.980;2023-06-26T09:52:59;8.32;;;3.15;;
50821;SDS011;36794;51.212;6.980;2023-06-26T09:55:34;11.60;;;3.08;;
50821;SDS011;36794;51.212;6.980;2023-06-26T09:58:00;9.15;;;3.40;;
50821;SDS011;36794;51.212;6.980;2023-06-26T10:00:28;10.90;;;3.00;;
50821;SDS011;36794;51.212;6.980;2023-06-26T10:02:54;10.38;;;3.20;;
50821;SDS011;36794;51.212;6.980;2023-06-26T10:05:19;13.30;;;3.30;;
50821;SDS011;36794;51.212;6.980;2023-06-26T10:07:46;6.45;;;3.03;;
50821;SDS011;36794;51.212;6.980;2023-06-26T10:10:12;8.95;;;2.72;;
50821;SDS011;36794;51.212;6.980;2023-06-26T10:12:39;9.77;;;2.92;;
50821;SDS011;36794;51.212;6.980;2023-06-26T10:15:05;8.30;;;2.97;;
50821;SDS011;36794;51.212;6.980;2023-06-26T10:17:34;8.48;;;2.83;;
50821;SDS011;36794;51.212;6.980;2023-06-26T10:20:01;10.75;;;2.70;;
50821;SDS011;36794;51.212;6.980;2023-06-26T10:22:29;8.38;;;2.83;;
50821;SDS011;36794;51.212;6.980;2023-06-26T10:24:58;8.45;;;2.40;;
50821;SDS011;36794;51.212;6.980;2023-06-26T10:27:25;7.93;;;2.55;;
50821;SDS011;36794;51.212;6.980;2023-06-26T10:29:58;8.05;;;2.30;;
50821;SDS011;36794;51.212;6.980;2023-06-26T10:32:26;7.68;;;2.20;;
50821;SDS011;36794;51.212;6.980;2023-06-26T10:34:53;8.27;;;2.30;;
50821;SDS011;36794;51.212;6.980;2023-06-26T10:37:19;9.80;;;2.10;;
50821;SDS011;36794;51.212;6.980;2023-06-26T10:39:46;7.60;;;2.20;;
50821;SDS011;36794;51.212;6.980;2023-06-26T10:42:15;8.75;;;2.10;;
50821;SDS011;36794;51.212;6.980;2023-06-26T10:44:42;9.07;;;2.13;;
50821;SDS011;36794;51.212;6.980;2023-06-26T10:47:08;6.75;;;1.83;;
50821;SDS011;36794;51.212;6.980;2023-06-26T10:49:36;9.27;;;2.28;;
50821;SDS011;36794;51.212;6.980;2023-06-26T10:52:02;7.53;;;1.90;;
50821;SDS011;36794;51.212;6.980;2023-06-26T10:54:29;6.03;;;1.80;;
50821;SDS011;36794;51.212;6.980;2023-06-26T10:56:55;7.05;;;1.95;;
50821;SDS011;36794;51.212;6.980;2023-06-26T10:59:22;6.15;;;2.00;;
50821;SDS011;36794;51.212;6.980;2023-06-26T11:01:58;6.18;;;1.70;;
50821;SDS011;36794;51.212;6.980;2023-06-26T11:04:38;9.30;;;2.10;;
50821;SDS011;36794;51.212;6.980;2023-06-26T11:07:18;9.40;;;2.10;;
50821;SDS011;36794;51.212;6.980;2023-06-26T11:15:02;5.13;;;1.30;;
50821;SDS011;36794;51.212;6.980;2023-06-26T11:17:28;6.20;;;1.35;;
50821;SDS011;36794;51.212;6.980;2023-06-26T11:19:54;4.35;;;1.40;;
50821;SDS011;36794;51.212;6.980;2023-06-26T11:22:21;11.35;;;2.10;;
50821;SDS011;36794;51.212;6.980;2023-06-26T11:24:48;6.18;;;1.80;;
50821;SDS011;36794;51.212;6.980;2023-06-26T11:27:14;3.60;;;1.33;;
50821;SDS011;36794;51.212;6.980;2023-06-26T11:29:41;4.47;;;1.15;;
50821;SDS011;36794;51.212;6.980;2023-06-26T11:32:13;4.65;;;1.60;;
50821;SDS011;36794;51.212;6.980;2023-06-26T11:34:39;6.63;;;1.35;;
50821;SDS011;36794;51.212;6.980;2023-06-26T11:37:07;7.15;;;1.20;;
50821;SDS011;36794;51.212;6.980;2023-06-26T11:39:34;3.97;;;1.15;;
50821;SDS011;36794;51.212;6.980;2023-06-26T11:42:00;3.67;;;1.30;;
50821;SDS011;36794;51.212;6.980;2023-06-26T11:44:30;1.98;;;0.88;;
50821;SDS011;36794;51.212;6.980;2023-06-26T11:46:56;4.25;;;1.13;;
50821;SDS011;36794;51.212;6.980;2023-06-26T11:49:23;4.57;;;1.20;;
50821;SDS011;36794;51.212;6.980;2023-06-26T11:51:51;2.97;;;1.08;;
50821;SDS011;36794;51.212;6.980;2023-06-26T11:54:24;3.13;;;0.90;;
50821;SDS011;36794;51.212;6.980;2023-06-26T11:56:54;4.55;;;1.10;;
50821;SDS011;36794;51.212;6.980;2023-06-26T11:59:21;6.28;;;0.98;;
50821;SDS011;36794;51.212;6.980;2023-06-26T12:01:48;4.68;;;0.93;;
50821;SDS011;36794;51.212;6.980;2023-06-26T12:04:16;6.30;;;1.13;;
50821;SDS011;36794;51.212;6.980;2023-06-26T12:06:45;3.28;;;1.10;;
50821;SDS011;36794;51.212;6.980;2023-06-26T12:09:13;6.80;;;1.55;;
50821;SDS011;36794;51.212;6.980;2023-06-26T12:11:42;5.25;;;1.33;;
50821;SDS011;36794;51.212;6.980;2023-06-26T12:14:09;3.65;;;0.90;;
50821;SDS011;36794;51.212;6.980;2023-06-26T12:16:35;5.65;;;1.10;;
50821;SDS011;36794;51.212;6.980;2023-06-26T12:19:03;4.97;;;1.02;;
50821;SDS011;36794;51.212;6.980;2023-06-26T12:24:15;8.48;;;0.98;;
50821;SDS011;36794;51.212;6.980;2023-06-26T12:26:42;5.47;;;1.02;;
50821;SDS011;36794;51.212;6.980;2023-06-26T12:29:10;4.00;;;1.02;;
50821;SDS011;36794;51.212;6.980;2023-06-26T12:31:39;5.78;;;1.35;;
50821;SDS011;36794;51.212;6.980;2023-06-26T12:34:08;6.47;;;1.10;;
50821;SDS011;36794;51.212;6.980;2023-06-26T12:36:41;3.03;;;1.00;;
50821;SDS011;36794;51.212;6.980;2023-06-26T12:39:09;8.38;;;1.25;;
50821;SDS011;36794;51.212;6.980;2023-06-26T12:41:43;4.53;;;0.90;;
50821;SDS011;36794;51.212;6.980;2023-06-26T12:44:25;5.20;;;1.15;;
50821;SDS011;36794;51.212;6.980;2023-06-26T12:46:56;7.53;;;1.10;;
50821;SDS011;36794;51.212;6.980;2023-06-26T12:49:29;3.10;;;1.02;;
50821;SDS011;36794;51.212;6.980;2023-06-26T12:51:56;3.55;;;0.88;;
50821;SDS011;36794;51.212;6.980;2023-06-26T12:54:22;5.68;;;0.90;;
50821;SDS011;36794;51.212;6.980;2023-06-26T12:56:48;6.47;;;1.08;;
50821;SDS011;36794;51.212;6.980;2023-06-26T12:59:14;4.05;;;0.98;;
50821;SDS011;36794;51.212;6.980;2023-06-26T13:01:40;1.83;;;0.70;;
50821;SDS011;36794;51.212;6.980;2023-06-26T13:04:06;3.80;;;0.90;;
50821;SDS011;36794;51.212;6.980;2023-06-26T13:06:33;2.97;;;0.80;;
50821;SDS011;36794;51.212;6.980;2023-06-26T13:08:59;4.30;;;0.70;;
50821;SDS011;36794;51.212;6.980;2023-06-26T13:11:25;6.60;;;0.80;;
50821;SDS011;36794;51.212;6.980;2023-06-26T13:13:51;5.93;;;0.80;;
50821;SDS011;36794;51.212;6.980;2023-06-26T13:16:17;3.00;;;0.75;;
50821;SDS011;36794;51.212;6.980;2023-06-26T13:18:43;3.05;;;0.90;;
50821;SDS011;36794;51.212;6.980;2023-06-26T13:21:09;4.55;;;1.00;;
50821;SDS011;36794;51.212;6.980;2023-06-26T13:23:35;7.35;;;0.98;;
50821;SDS011;36794;51.212;6.980;2023-06-26T13:26:01;2.60;;;0.70;;
50821;SDS011;36794;51.212;6.980;2023-06-26T13:28:28;1.65;;;0.70;;
50821;SDS011;36794;51.212;6.980;2023-06-26T13:30:53;4.22;;;0.75;;
50821;SDS011;36794;51.212;6.980;2023-06-26T13:33:19;2.88;;;0.65;;
50821;SDS011;36794;51.212;6.980;2023-06-26T13:35:45;3.40;;;0.80;;
50821;SDS011;36794;51.212;6.980;2023-06-26T13:38:11;3.53;;;0.60;;
50821;SDS011;36794;51.212;6.980;2023-06-26T13:40:37;2.08;;;0.70;;
50821;SDS011;36794;51.212;6.980;2023-06-26T13:43:03;5.63;;;0.70;;
50821;SDS011;36794;51.212;6.980;2023-06-26T13:45:29;5.25;;;1.23;;
50821;SDS011;36794;51.212;6.980;2023-06-26T13:47:55;3.50;;;0.90;;
50821;SDS011;36794;51.212;6.980;2023-06-26T13:50:21;2.78;;;0.70;;
50821;SDS011;36794;51.212;6.980;2023-06-26T13:52:47;4.38;;;0.73;;
50821;SDS011;36794;51.212;6.980;2023-06-26T13:55:13;5.35;;;0.95;;
50821;SDS011;36794;51.212;6.980;2023-06-26T13:57:39;4.95;;;0.80;;
50821;SDS011;36794;51.212;6.980;2023-06-26T14:00:07;3.53;;;0.70;;
50821;SDS011;36794;51.212;6.980;2023-06-26T14:02:33;4.15;;;0.70;;
50821;SDS011;36794;51.212;6.980;2023-06-26T14:04:59;4.88;;;0.70;;
50821;SDS011;36794;51.212;6.980;2023-06-26T14:07:25;3.95;;;0.80;;
50821;SDS011;36794;51.212;6.980;2023-06-26T14:09:51;2.78;;;0.80;;
50821;SDS011;36794;51.212;6.980;2023-06-26T14:12:16;4.43;;;0.90;;
50821;SDS011;36794;51.212;6.980;2023-06-26T14:14:43;5.75;;;0.75;;
50821;SDS011;36794;51.212;6.980;2023-06-26T14:17:09;4.18;;;1.15;;
50821;SDS011;36794;51.212;6.980;2023-06-26T14:19:40;4.38;;;1.00;;
50821;SDS011;36794;51.212;6.980;2023-06-26T14:22:06;3.90;;;0.85;;
50821;SDS011;36794;51.212;6.980;2023-06-26T14:24:32;2.53;;;0.60;;
50821;SDS011;36794;51.212;6.980;2023-06-26T14:26:58;5.47;;;0.80;;
50821;SDS011;36794;51.212;6.980;2023-06-26T14:29:24;1.42;;;0.68;;
50821;SDS011;36794;51.212;6.980;2023-06-26T14:31:50;4.07;;;1.63;;
50821;SDS011;36794;51.212;6.980;2023-06-26T14:34:16;5.22;;;0.93;;
50821;SDS011;36794;51.212;6.980;2023-06-26T14:36:42;5.22;;;0.82;;
50821;SDS011;36794;51.212;6.980;2023-06-26T14:39:08;2.80;;;0.70;;
50821;SDS011;36794;51.212;6.980;2023-06-26T14:41:34;5.05;;;0.95;;
50821;SDS011;36794;51.212;6.980;2023-06-26T14:44:00;4.63;;;0.68;;
50821;SDS011;36794;51.212;6.980;2023-06-26T14:46:26;3.00;;;0.88;;
50821;SDS011;36794;51.212;6.980;2023-06-26T14:48:52;5.43;;;0.80;;
50821;SDS011;36794;51.212;6.980;2023-06-26T14:51:20;4.43;;;1.10;;
50821;SDS011;36794;51.212;6.980;2023-06-26T14:53:47;6.75;;;0.98;;